createdAt,value
2023-09-17T00:01:47.970Z,21.00
2023-09-17T00:04:16.086Z,20.90
2023-09-17T00:06:45.471Z,20.91
2023-09-17T00:09:13.765Z,20.91
2023-09-17T00:11:41.879Z,20.90
2023-09-17T00:14:10.148Z,20.95
2023-09-17T00:16:39.729Z,20.84
2023-09-17T00:19:08.087Z,20.85
2023-09-17T00:21:35.906Z,20.80
2023-09-17T00:24:05.785Z,20.81
2023-09-17T00:26:33.655Z,20.77
2023-09-17T00:29:02.032Z,20.72
2023-09-17T00:31:30.113Z,20.59
2023-09-17T00:33:58.038Z,20.57
2023-09-17T00:36:25.976Z,20.67
2023-09-17T00:38:53.783Z,20.61
2023-09-17T00:41:22.956Z,20.58
2023-09-17T00:43:51.069Z,20.54
2023-09-17T00:46:20.685Z,20.49
2023-09-17T00:48:49.102Z,20.39
2023-09-17T00:51:17.617Z,20.29
2023-09-17T00:53:46.129Z,20.22
2023-09-17T00:56:15.738Z,20.08
2023-09-17T00:58:45.574Z,20.11
2023-09-17T01:01:13.777Z,20.07
2023-09-17T01:03:41.937Z,19.96
2023-09-17T01:06:12.325Z,19.93
2023-09-17T01:08:41.989Z,19.97
2023-09-17T01:11:12.287Z,19.92
2023-09-17T01:13:50.413Z,19.95
2023-09-17T01:16:23.289Z,19.94
2023-09-17T01:18:54.404Z,19.95
2023-09-17T01:21:31.148Z,19.95
2023-09-17T01:24:21.414Z,19.99
2023-09-17T01:27:01.064Z,20.03
2023-09-17T01:29:33.317Z,20.00
2023-09-17T01:32:01.383Z,19.89
2023-09-17T01:34:31.472Z,19.93
2023-09-17T01:37:04.120Z,19.90
2023-09-17T01:39:42.107Z,19.97
2023-09-17T01:42:14.057Z,19.68
2023-09-17T01:44:43.807Z,19.54
2023-09-17T01:47:12.450Z,19.39
2023-09-17T01:49:41.794Z,19.39
2023-09-17T01:52:11.574Z,19.59
2023-09-17T01:54:39.801Z,19.70
2023-09-17T01:57:09.298Z,19.80
2023-09-17T01:59:38.531Z,19.92
2023-09-17T02:02:07.480Z,19.93
2023-09-17T02:04:36.664Z,20.05
2023-09-17T02:07:05.179Z,20.05
2023-09-17T02:09:32.974Z,20.10
2023-09-17T02:12:00.805Z,20.03
2023-09-17T02:14:28.816Z,19.99
2023-09-17T02:16:58.213Z,19.89
2023-09-17T02:19:26.684Z,19.86
2023-09-17T02:21:54.694Z,20.02
2023-09-17T02:24:23.033Z,20.00
2023-09-17T02:26:51.094Z,20.02
2023-09-17T02:29:21.556Z,19.99
2023-09-17T02:31:49.513Z,19.94
2023-09-17T02:34:18.819Z,19.81
2023-09-17T02:36:46.819Z,19.82
2023-09-17T02:39:14.945Z,19.80
2023-09-17T02:41:45.882Z,19.77
2023-09-17T02:44:14.322Z,19.83
2023-09-17T02:46:42.278Z,19.77
2023-09-17T02:49:10.897Z,19.74
2023-09-17T02:51:40.285Z,19.74
2023-09-17T02:54:08.107Z,19.68
2023-09-17T02:56:35.948Z,19.81
2023-09-17T02:59:04.630Z,19.74
2023-09-17T03:01:32.674Z,19.84
2023-09-17T03:04:01.628Z,19.85
2023-09-17T03:06:31.658Z,19.86
2023-09-17T03:09:02.295Z,19.69
2023-09-17T03:11:30.214Z,19.58
2023-09-17T03:14:02.957Z,19.55
2023-09-17T03:16:31.249Z,19.75
2023-09-17T03:18:59.102Z,19.76
2023-09-17T03:21:27.064Z,19.75
2023-09-17T03:23:54.996Z,19.83
2023-09-17T03:26:25.707Z,19.74
2023-09-17T03:28:53.696Z,19.78
2023-09-17T03:31:22.200Z,19.79
2023-09-17T03:33:51.049Z,19.83
2023-09-17T03:36:19.195Z,19.90
2023-09-17T03:38:47.105Z,19.81
2023-09-17T03:41:14.957Z,19.85
2023-09-17T03:43:44.904Z,19.79
2023-09-17T03:46:13.718Z,19.72
2023-09-17T03:48:41.787Z,19.69
2023-09-17T03:51:11.722Z,19.75
2023-09-17T03:53:41.361Z,19.72
2023-09-17T03:56:12.179Z,19.69
2023-09-17T03:58:40.223Z,19.69
2023-09-17T04:01:10.489Z,19.66
2023-09-17T04:03:38.869Z,19.57
2023-09-17T04:06:07.254Z,19.69
2023-09-17T04:08:35.136Z,19.69
2023-09-17T04:11:05.444Z,19.66
2023-09-17T04:13:33.428Z,19.67
2023-09-17T04:16:01.512Z,19.69
2023-09-17T04:18:30.914Z,19.61
2023-09-17T04:20:58.737Z,19.56
2023-09-17T04:23:27.044Z,19.56
2023-09-17T04:25:56.135Z,19.59
2023-09-17T04:28:24.579Z,19.61
2023-09-17T04:30:52.450Z,19.64
2023-09-17T04:33:22.008Z,19.59
2023-09-17T04:35:57.223Z,19.51
2023-09-17T04:38:25.344Z,19.57
2023-09-17T04:40:53.268Z,19.56
2023-09-17T04:43:22.446Z,19.58
2023-09-17T04:45:50.751Z,19.59
2023-09-17T04:48:26.772Z,19.71
2023-09-17T04:50:56.280Z,19.85
2023-09-17T04:53:24.194Z,19.92
2023-09-17T04:55:52.130Z,20.01
2023-09-17T04:58:25.083Z,20.03
2023-09-17T05:00:55.008Z,19.94
2023-09-17T05:03:23.701Z,19.88
2023-09-17T05:05:52.166Z,19.96
2023-09-17T05:08:22.011Z,19.90
2023-09-17T05:10:50.191Z,19.94
2023-09-17T05:13:20.913Z,20.05
2023-09-17T05:15:49.735Z,20.11
2023-09-17T05:18:17.787Z,20.11
2023-09-17T05:20:49.421Z,20.02
2023-09-17T05:23:18.733Z,20.11
2023-09-17T05:25:48.670Z,19.98
2023-09-17T05:28:16.867Z,20.01
2023-09-17T05:30:45.795Z,19.91
2023-09-17T05:33:13.762Z,19.81
2023-09-17T05:35:43.201Z,19.80
2023-09-17T05:38:11.057Z,19.89
2023-09-17T05:40:38.977Z,19.87
2023-09-17T05:43:08.375Z,19.97
2023-09-17T05:45:36.407Z,19.93
2023-09-17T05:48:05.401Z,19.88
2023-09-17T05:50:34.832Z,19.75
2023-09-17T05:53:03.079Z,19.75
2023-09-17T05:55:33.014Z,19.83
2023-09-17T05:58:02.200Z,19.68
2023-09-17T06:00:31.819Z,19.69
2023-09-17T06:03:00.695Z,19.71
2023-09-17T06:05:28.758Z,19.72
2023-09-17T06:07:56.744Z,19.74
2023-09-17T06:10:27.555Z,19.88
2023-09-17T06:12:56.010Z,19.89
2023-09-17T06:15:24.332Z,19.91
2023-09-17T06:17:53.605Z,19.92
2023-09-17T06:20:21.753Z,19.93
2023-09-17T06:22:49.980Z,20.03
2023-09-17T06:25:18.523Z,20.08
2023-09-17T06:27:46.716Z,20.11
2023-09-17T06:30:16.718Z,20.08
2023-09-17T06:32:45.023Z,20.24
2023-09-17T06:35:14.499Z,20.24
2023-09-17T06:37:42.746Z,20.44
2023-09-17T06:40:15.136Z,20.41
2023-09-17T06:42:43.146Z,20.62
2023-09-17T06:45:12.429Z,20.91
2023-09-17T06:47:40.867Z,20.82
2023-09-17T06:50:09.148Z,20.88
2023-09-17T06:52:38.470Z,20.81
2023-09-17T06:55:06.527Z,20.81
2023-09-17T06:57:34.539Z,20.98
2023-09-17T07:00:02.525Z,21.09
2023-09-17T07:02:30.484Z,21.14
2023-09-17T07:05:01.802Z,20.95
2023-09-17T07:07:29.926Z,21.13
2023-09-17T07:09:59.126Z,20.92
2023-09-17T07:12:27.186Z,20.88
2023-09-17T07:14:55.119Z,20.95
2023-09-17T07:17:23.097Z,21.07
2023-09-17T07:19:51.085Z,21.18
2023-09-17T07:22:18.989Z,21.15
2023-09-17T07:24:46.943Z,21.19
2023-09-17T07:27:16.344Z,21.41
2023-09-17T07:29:46.636Z,21.69
2023-09-17T07:32:14.725Z,21.85
2023-09-17T07:34:42.653Z,22.30
2023-09-17T07:37:10.685Z,22.53
2023-09-17T07:39:39.580Z,22.18
2023-09-17T07:42:07.562Z,22.20
2023-09-17T07:44:36.728Z,22.45
2023-09-17T07:47:06.789Z,22.61
2023-09-17T07:49:36.474Z,22.52
2023-09-17T07:52:05.067Z,22.86
2023-09-17T07:54:39.294Z,23.04
2023-09-17T07:57:07.871Z,23.34
2023-09-17T07:59:37.148Z,23.33
2023-09-17T08:02:05.376Z,23.26
2023-09-17T08:04:33.792Z,23.52
2023-09-17T08:07:01.796Z,24.13
2023-09-17T08:09:30.648Z,24.15
2023-09-17T08:11:59.527Z,24.39
2023-09-17T08:14:28.094Z,24.44
2023-09-17T08:16:57.361Z,24.53
2023-09-17T08:19:25.452Z,24.78
2023-09-17T08:21:53.334Z,24.71
2023-09-17T08:24:21.812Z,25.00
2023-09-17T08:26:50.231Z,25.24
2023-09-17T08:31:23.371Z,25.43
2023-09-17T08:34:01.744Z,25.86
2023-09-17T08:36:30.358Z,26.37
2023-09-17T09:26:02.370Z,28.15
2023-09-17T09:28:32.890Z,27.98
2023-09-17T09:31:00.850Z,28.02
2023-09-17T09:33:29.650Z,28.24
2023-09-17T09:35:57.867Z,28.31
2023-09-17T09:38:25.758Z,28.30
2023-09-17T09:40:54.948Z,28.38
2023-09-17T09:43:33.957Z,28.29
2023-09-17T09:46:06.669Z,28.19
2023-09-17T09:48:38.075Z,27.88
2023-09-17T09:51:06.138Z,27.95
2023-09-17T09:53:34.173Z,28.16
2023-09-17T09:56:05.351Z,28.30
2023-09-17T09:58:35.081Z,29.05
2023-09-17T10:01:04.894Z,29.48
2023-09-17T10:03:34.814Z,30.01
2023-09-17T10:06:07.918Z,30.59
2023-09-17T10:08:38.986Z,30.51
2023-09-17T10:11:08.414Z,30.67
2023-09-17T10:13:38.727Z,31.23
2023-09-17T10:16:07.873Z,31.44
2023-09-17T10:18:39.276Z,31.23
2023-09-17T10:21:07.820Z,31.41
2023-09-17T10:23:37.678Z,31.63
2023-09-17T10:26:08.182Z,31.44
2023-09-17T10:28:39.525Z,31.77
2023-09-17T10:31:09.565Z,31.67
2023-09-17T10:33:40.608Z,32.04
2023-09-17T10:36:09.468Z,32.14
2023-09-17T10:38:40.563Z,31.78
2023-09-17T10:41:09.712Z,31.65
2023-09-17T10:43:40.730Z,32.05
2023-09-17T10:46:13.024Z,32.20
2023-09-17T10:48:43.445Z,32.58
2023-09-17T10:51:13.159Z,32.16
2023-09-17T10:53:41.029Z,32.20
2023-09-17T10:56:11.698Z,32.24
2023-09-17T10:58:44.526Z,32.95
2023-09-17T11:01:17.781Z,33.49
2023-09-17T11:03:52.331Z,33.91
2023-09-17T11:06:26.903Z,33.94
2023-09-17T11:08:57.265Z,33.78
2023-09-17T11:11:31.203Z,34.31
2023-09-17T11:14:00.626Z,34.51
2023-09-17T11:16:32.744Z,34.98
2023-09-17T11:19:10.577Z,34.95
2023-09-17T11:21:41.562Z,34.66
2023-09-17T11:24:14.470Z,34.14
2023-09-17T11:26:46.181Z,34.96
2023-09-17T11:29:18.566Z,34.92
2023-09-17T11:32:05.301Z,34.97
2023-09-17T11:34:37.258Z,34.44
2023-09-17T11:37:06.969Z,34.45
2023-09-17T11:39:36.707Z,34.80
2023-09-17T11:42:13.860Z,34.21
2023-09-17T11:44:46.358Z,34.01
2023-09-17T11:47:15.658Z,33.62
2023-09-17T11:49:44.118Z,33.36
2023-09-17T11:52:13.443Z,32.86
2023-09-17T11:54:50.561Z,32.89
2023-09-17T11:57:26.372Z,32.75
2023-09-17T11:59:56.886Z,32.23
2023-09-17T12:02:25.347Z,32.16
2023-09-17T12:04:54.656Z,32.08
2023-09-17T12:07:23.411Z,31.65
2023-09-17T12:10:01.905Z,31.28
2023-09-17T12:12:33.661Z,31.28
2023-09-17T12:15:05.043Z,30.96
2023-09-17T12:17:43.991Z,30.99
2023-09-17T12:20:24.089Z,30.89
2023-09-17T12:22:57.889Z,30.93
2023-09-17T12:25:26.405Z,30.67
2023-09-17T12:27:54.253Z,30.33
2023-09-17T12:30:27.337Z,30.44
2023-09-17T12:32:55.452Z,30.52
2023-09-17T12:35:24.178Z,31.00
2023-09-17T12:37:52.168Z,31.47
2023-09-17T12:40:22.789Z,32.46
2023-09-17T12:42:51.649Z,32.49
2023-09-17T12:45:20.427Z,32.67
2023-09-17T12:47:49.679Z,32.88
2023-09-17T12:50:19.732Z,33.31
2023-09-17T12:52:47.737Z,33.49
2023-09-17T12:55:15.972Z,33.82
2023-09-17T12:57:49.234Z,33.26
2023-09-17T13:00:18.270Z,32.67
2023-09-17T13:02:46.569Z,32.43
2023-09-17T13:05:21.284Z,32.30
2023-09-17T13:07:49.690Z,32.76
2023-09-17T13:10:21.424Z,32.90
2023-09-17T13:12:49.528Z,33.44
2023-09-17T13:15:17.746Z,33.21
2023-09-17T13:17:46.679Z,32.55
2023-09-17T13:20:15.154Z,32.21
2023-09-17T13:22:44.408Z,32.60
2023-09-17T13:25:12.841Z,33.08
2023-09-17T13:27:40.763Z,33.32
2023-09-17T13:30:10.589Z,33.43
2023-09-17T13:32:38.544Z,33.75
2023-09-17T13:35:12.023Z,33.63
2023-09-17T13:37:41.448Z,33.67
2023-09-17T13:40:11.286Z,33.75
2023-09-17T13:42:39.175Z,34.37
2023-09-17T13:45:08.535Z,34.59
2023-09-17T13:47:36.447Z,34.75
2023-09-17T13:50:05.713Z,35.14
2023-09-17T13:52:33.533Z,35.48
2023-09-17T13:55:01.354Z,35.22
2023-09-17T13:57:30.638Z,34.76
2023-09-17T13:59:58.446Z,34.95
2023-09-17T14:02:26.349Z,35.02
2023-09-17T14:04:54.300Z,35.07
2023-09-17T14:07:22.151Z,35.09
2023-09-17T14:09:50.060Z,35.06
2023-09-17T14:12:17.936Z,34.80
2023-09-17T14:14:47.059Z,34.69
2023-09-17T14:17:16.959Z,34.70
2023-09-17T14:19:46.358Z,34.85
2023-09-17T14:22:14.913Z,34.21
2023-09-17T14:24:42.841Z,33.95
2023-09-17T14:27:10.697Z,33.92
2023-09-17T14:29:38.876Z,33.78
2023-09-17T14:32:08.322Z,33.63
2023-09-17T14:34:36.371Z,33.12
2023-09-17T14:37:05.315Z,32.30
2023-09-17T14:39:33.122Z,32.09
2023-09-17T14:42:01.053Z,32.13
2023-09-17T14:44:28.807Z,32.39
2023-09-17T14:47:00.113Z,32.38
2023-09-17T14:49:29.425Z,32.72
2023-09-17T14:51:58.523Z,32.37
2023-09-17T14:54:26.993Z,32.58
2023-09-17T14:56:54.860Z,32.46
2023-09-17T14:59:22.834Z,32.64
2023-09-17T15:01:59.818Z,32.53
2023-09-17T15:04:30.010Z,31.98
2023-09-17T15:06:58.201Z,32.05
2023-09-17T15:09:26.935Z,32.04
2023-09-17T15:11:55.101Z,31.93
2023-09-17T15:14:23.020Z,31.69
2023-09-17T15:16:50.956Z,31.66
2023-09-17T15:19:18.924Z,31.54
2023-09-17T15:21:48.511Z,31.53
2023-09-17T15:24:16.472Z,31.46
2023-09-17T15:26:44.894Z,31.34
2023-09-17T15:29:14.291Z,31.23
2023-09-17T15:31:42.544Z,31.03
2023-09-17T15:34:10.964Z,30.92
2023-09-17T15:36:42.172Z,30.69
2023-09-17T15:39:11.483Z,30.75
2023-09-17T15:41:39.318Z,30.48
2023-09-17T15:44:07.960Z,30.33
2023-09-17T15:46:36.820Z,30.22
2023-09-17T15:49:04.993Z,30.28
2023-09-17T15:51:33.209Z,30.31
2023-09-17T15:54:01.015Z,30.26
2023-09-17T15:56:30.573Z,30.19
2023-09-17T15:58:58.551Z,30.02
2023-09-17T16:01:26.536Z,30.04
2023-09-17T16:03:54.468Z,30.02
2023-09-17T16:06:24.805Z,29.92
2023-09-17T16:08:53.771Z,29.74
2023-09-17T16:11:22.075Z,29.67
2023-09-17T16:13:51.605Z,29.56
2023-09-17T16:16:19.819Z,29.48
2023-09-17T16:18:47.801Z,29.39
2023-09-17T16:21:16.241Z,29.29
2023-09-17T16:23:44.563Z,29.18
2023-09-17T16:26:12.476Z,29.09
2023-09-17T16:28:40.530Z,29.05
2023-09-17T16:31:09.826Z,28.86
2023-09-17T16:33:37.895Z,28.74
2023-09-17T16:36:07.379Z,28.62
2023-09-17T16:38:35.332Z,28.40
2023-09-17T16:41:03.521Z,28.14
2023-09-17T16:43:31.548Z,27.95
2023-09-17T16:45:59.562Z,27.62
2023-09-17T16:48:28.989Z,27.53
2023-09-17T16:50:56.941Z,27.60
2023-09-17T16:53:25.054Z,27.64
2023-09-17T16:55:52.986Z,27.71
2023-09-17T16:58:20.913Z,27.71
2023-09-17T17:00:49.857Z,27.63
2023-09-17T17:03:18.093Z,27.54
2023-09-17T17:05:47.433Z,27.45
2023-09-17T17:08:15.637Z,27.47
2023-09-17T17:10:43.658Z,27.47
2023-09-17T17:13:13.135Z,27.54
2023-09-17T17:15:41.131Z,27.43
2023-09-17T17:18:10.997Z,27.18
2023-09-17T17:20:38.932Z,27.00
2023-09-17T17:23:08.423Z,27.04
2023-09-17T17:25:36.728Z,27.16
2023-09-17T17:28:05.476Z,27.07
2023-09-17T17:30:33.443Z,27.03
2023-09-17T17:33:01.384Z,26.97
2023-09-17T17:35:29.403Z,26.91
2023-09-17T17:37:57.437Z,26.78
2023-09-17T17:40:27.855Z,26.62
2023-09-17T17:42:56.347Z,26.42
2023-09-17T17:45:24.609Z,26.29
2023-09-17T17:47:52.584Z,26.18
2023-09-17T17:50:20.487Z,26.17
2023-09-17T17:52:48.712Z,26.23
2023-09-17T17:55:16.627Z,26.09
2023-09-17T17:57:45.859Z,25.89
2023-09-17T18:00:14.601Z,25.81
2023-09-17T18:02:47.207Z,25.80
2023-09-17T18:05:15.549Z,25.74
2023-09-17T18:07:46.031Z,25.64
2023-09-17T18:10:14.925Z,25.61
2023-09-17T18:12:43.198Z,25.59
2023-09-17T18:15:14.736Z,25.58
2023-09-17T18:17:42.642Z,25.48
2023-09-17T18:20:13.399Z,25.32
2023-09-17T18:22:41.550Z,25.33
2023-09-17T18:25:09.632Z,25.23
2023-09-17T18:27:38.767Z,25.10
2023-09-17T18:30:08.006Z,25.02
2023-09-17T18:32:37.329Z,25.02
2023-09-17T18:35:06.235Z,25.04
2023-09-17T18:37:34.499Z,25.04
2023-09-17T18:40:02.678Z,25.01
2023-09-17T18:42:30.628Z,24.92
2023-09-17T18:44:58.634Z,24.92
2023-09-17T18:47:26.624Z,24.85
2023-09-17T18:49:56.083Z,24.77
2023-09-17T18:52:25.625Z,24.69
2023-09-17T18:54:55.445Z,24.62
2023-09-17T18:57:23.536Z,24.55
2023-09-17T18:59:55.143Z,24.55
2023-09-17T19:02:23.535Z,24.53
2023-09-17T19:04:51.561Z,24.56
2023-09-17T19:07:20.820Z,24.56
2023-09-17T19:09:49.129Z,24.53
2023-09-17T19:12:16.930Z,24.55
2023-09-17T19:14:47.529Z,24.47
2023-09-17T19:17:15.836Z,24.24
2023-09-17T19:19:43.760Z,23.97
2023-09-17T19:22:11.647Z,23.95
2023-09-17T19:24:41.159Z,24.09
2023-09-17T19:27:09.681Z,24.14
2023-09-17T19:29:37.504Z,24.16
2023-09-17T19:32:05.461Z,24.12
2023-09-17T19:34:33.635Z,24.12
2023-09-17T19:37:01.779Z,24.13
2023-09-17T19:39:29.944Z,24.15
2023-09-17T19:41:59.332Z,24.11
2023-09-17T19:44:27.254Z,24.07
2023-09-17T19:46:57.769Z,24.07
2023-09-17T19:49:27.465Z,24.09
2023-09-17T19:51:55.365Z,24.08
2023-09-17T19:54:23.291Z,24.03
2023-09-17T19:56:51.439Z,23.81
2023-09-17T19:59:20.745Z,23.73
2023-09-17T20:01:49.228Z,23.70
2023-09-17T20:04:17.410Z,23.63
2023-09-17T20:06:54.535Z,23.64
2023-09-17T20:09:23.850Z,23.63
2023-09-17T20:11:52.354Z,23.62
2023-09-17T20:14:22.408Z,23.66
2023-09-17T20:16:50.351Z,23.67
2023-09-17T20:19:18.228Z,23.67
2023-09-17T20:21:46.160Z,23.77
2023-09-17T20:24:14.737Z,23.73
2023-09-17T20:26:45.520Z,23.82
2023-09-17T20:29:13.549Z,23.78
2023-09-17T20:31:42.853Z,23.85
2023-09-17T20:34:14.693Z,23.84
2023-09-17T20:36:44.062Z,23.80
2023-09-17T20:39:15.112Z,23.78
2023-09-17T20:41:46.753Z,23.70
2023-09-17T20:44:14.818Z,23.63
2023-09-17T20:46:44.098Z,23.57
2023-09-17T20:49:11.915Z,23.62
2023-09-17T20:51:39.772Z,23.59
2023-09-17T20:54:08.274Z,23.52
2023-09-17T20:56:36.090Z,23.41
2023-09-17T20:59:04.191Z,23.20
2023-09-17T21:01:33.134Z,23.16
2023-09-17T21:04:03.733Z,23.17
2023-09-17T21:06:31.575Z,23.17
2023-09-17T21:09:03.300Z,23.12
2023-09-17T21:11:32.738Z,23.02
2023-09-17T21:14:00.530Z,23.12
2023-09-17T21:16:29.360Z,23.09
2023-09-17T21:18:57.275Z,23.03
2023-09-17T21:21:26.428Z,23.05
2023-09-17T21:23:56.442Z,23.14
2023-09-17T21:26:25.108Z,23.04
2023-09-17T21:28:54.136Z,23.01
2023-09-17T21:31:23.060Z,22.92
2023-09-17T21:33:51.014Z,22.79
2023-09-17T21:36:19.015Z,22.82
2023-09-17T21:38:48.346Z,22.85
2023-09-17T21:41:16.551Z,22.94
2023-09-17T21:43:44.443Z,22.90
2023-09-17T21:46:12.349Z,22.96
2023-09-17T21:48:40.262Z,23.05
2023-09-17T21:51:08.719Z,23.19
2023-09-17T21:53:37.461Z,23.21
2023-09-17T21:56:06.920Z,23.23
2023-09-17T21:58:34.971Z,23.23
2023-09-17T22:01:03.091Z,23.16
2023-09-17T22:03:31.940Z,23.18
2023-09-17T22:06:03.399Z,23.21
2023-09-17T22:08:34.265Z,23.19
2023-09-17T22:11:06.716Z,23.17
2023-09-17T22:13:35.001Z,23.11
2023-09-17T22:16:04.733Z,23.10
2023-09-17T22:18:32.637Z,22.94
2023-09-17T22:21:08.293Z,22.99
2023-09-17T22:23:36.770Z,22.91
2023-09-17T22:26:09.829Z,22.92
2023-09-17T22:28:37.847Z,22.83
2023-09-17T22:31:11.419Z,22.87
2023-09-17T22:33:41.519Z,22.86
2023-09-17T22:36:10.699Z,22.92
2023-09-17T22:38:43.079Z,23.02
2023-09-17T22:41:18.082Z,23.02
2023-09-17T22:43:48.583Z,22.95
2023-09-17T22:46:17.934Z,22.97
2023-09-17T22:48:50.731Z,23.00
2023-09-17T22:51:20.643Z,22.96
2023-09-17T22:53:49.672Z,22.85
2023-09-17T22:56:19.377Z,22.66
2023-09-17T22:58:47.562Z,22.56
2023-09-17T23:01:18.612Z,22.61
2023-09-17T23:03:46.974Z,22.49
2023-09-17T23:06:14.876Z,22.38
2023-09-17T23:08:43.349Z,22.39
2023-09-17T23:11:11.372Z,22.38
2023-09-17T23:13:42.368Z,22.35
2023-09-17T23:16:10.313Z,22.24
2023-09-17T23:18:40.476Z,22.24
2023-09-17T23:21:08.569Z,22.16
2023-09-17T23:23:36.394Z,22.15
2023-09-17T23:26:04.838Z,22.19
2023-09-17T23:28:37.871Z,22.16
2023-09-17T23:31:07.458Z,22.15
2023-09-17T23:33:35.728Z,22.05
2023-09-17T23:36:04.379Z,22.16
2023-09-17T23:38:32.642Z,22.21
2023-09-17T23:41:01.064Z,22.04
2023-09-17T23:43:28.962Z,22.01
2023-09-17T23:45:58.155Z,21.93
2023-09-17T23:48:29.075Z,21.87
2023-09-17T23:50:57.009Z,21.85
2023-09-17T23:53:25.067Z,21.86
2023-09-17T23:55:53.535Z,21.83
2023-09-17T23:58:22.258Z,21.69
